Terminal Aerodrome Forecast
Issued by NWS

Home | Current Version | Previous Version | Text Only | Print | Product List | Glossary On
Versions: 1 2 3 4 5 6 7 8 9 10 11 12 13 14 15 16 17 18 19 20 21 22 23 24 25 26 27 28 29 30 31
000
FTUS43 KSGF 221700
TAFBBG
TAF
KBBG 221725Z 2218/2318 15007KT 6SM -DZ BR OVC005
     FM222000 20010G15KT 4SM -DZ BR OVC008
     FM222300 25010KT P6SM OVC015
     FM230300 26010KT P6SM BKN025
     FM230600 27007KT P6SM SCT025
     FM230800 27006KT P6SM BKN100=

USA.gov is the U.S. government's official web portal to all federal, state and local government web resources and services.